Buoy 46563

sailwx.info

Track history (hours):
 
Tides and Currents Weather Stations Pressure Air Temp Water Temp Dewpoint Dewpoint Depression Visibility Wind Speed Wind Dir Waves Ship Positions

Drifting buoy 46563

Last reported at 2014-Jul-24 14:00 UTC. Time now 2014-Jul-24 17:45 UTC.
Position N 24°21' W 125°52'.

Water temperature 23.3 ° C

Date/timePositionNaut miles runAvg speedWind from/ knotsBaromVisibWave heightAir tempDewpointWater temp
2014-Jul-24 14:00N 24°21' W 125°52'0 0.0 23.3
2014-Jul-24 13:00N 24°21' W 125°52'1 1.0 23.3
2014-Jul-24 12:00N 24°20' W 125°51'1 0.3 23.3
2014-Jul-24 10:00N 24°20' W 125°52'0 0.0 23.3
2014-Jul-24 09:00N 24°20' W 125°52'2 0.6 23.4
2014-Jul-24 06:00N 24°20' W 125°50'1 0.7 23.4
2014-Jul-24 05:00N 24°20' W 125°50'0 0.0 23.4
2014-Jul-24 03:00N 24°20' W 125°50'1 0.6 23.4
2014-Jul-24 02:00N 24°20' W 125°49'1 0.3 23.5
2014-Jul-24 00:00N 24°21' W 125°49'1 0.8 23.6
2014-Jul-23 23:00N 24°21' W 125°49'1 0.3 23.5
2014-Jul-23 21:00N 24°21' W 125°48'0 0.1 23.5
2014-Jul-23 13:00N 24°21' W 125°48'0 0.0 23.3
2014-Jul-23 12:00N 24°21' W 125°48'1 0.5 23.4
2014-Jul-23 10:00N 24°22' W 125°47'1 0.2 23.4
2014-Jul-23 05:00N 24°23' W 125°48'0 0.0 23.4
2014-Jul-23 04:00N 24°23' W 125°48'2 0.3 23.5
2014-Jul-22 23:00N 24°23' W 125°50'1 1.0 24.0
2014-Jul-22 22:00N 24°23' W 125°49'0 0.0 24.0
2014-Jul-22 21:00N 24°23' W 125°49'0 0.0 23.9
2014-Jul-22 18:00N 24°23' W 125°49'0 0.2 23.5
2014-Jul-22 17:00N 24°23' W 125°48'1 0.2 23.4
2014-Jul-22 13:00N 24°23' W 125°48'1 0.7 23.4
2014-Jul-22 11:00N 24°24' W 125°47'0 0.0 23.4
2014-Jul-22 09:00N 24°24' W 125°47'2 0.4 23.4
2014-Jul-22 05:00N 24°26' W 125°48'2 1.5 23.7
2014-Jul-22 04:00N 24°26' W 125°50'0 0.0 23.8
2014-Jul-22 02:00N 24°26' W 125°50'1 0.8 23.8
2014-Jul-22 01:00N 24°26' W 125°51'0 0.1 23.7
2014-Jul-21 22:00N 24°26' W 125°51'0 0.1 24.5
2014-Jul-21 18:00N 24°26' W 125°51'0 0.0 23.4
2014-Jul-21 17:00N 24°26' W 125°51'1 0.2 23.1
2014-Jul-21 12:00N 24°27' W 125°51'1 0.4 22.9
2014-Jul-21 10:00N 24°28' W 125°51'0 0.0 23.0
2014-Jul-21 09:00N 24°28' W 125°51'3 0.5 23.1
2014-Jul-21 04:00N 24°30' W 125°52'0 0.0 23.5
2014-Jul-21 03:00N 24°30' W 125°52'1 1.1 23.6
2014-Jul-21 02:00N 24°31' W 125°53'1 0.4 23.6
2014-Jul-21 00:00N 24°31' W 125°53'1 0.4 23.8
2014-Jul-20 22:00N 24°32' W 125°54'0 0.0 23.6
2014-Jul-20 20:00N 24°32' W 125°54'0 0.2 23.4
2014-Jul-20 19:00N 24°32' W 125°54'0 0.0 23.2
2014-Jul-20 18:00N 24°32' W 125°54'0 0.2 22.9
2014-Jul-20 17:00N 24°32' W 125°54'1 0.2 22.7
2014-Jul-20 14:00N 24°33' W 125°54'0 0.2 22.6
2014-Jul-20 13:00N 24°33' W 125°54'0 0.2 22.6
2014-Jul-20 12:00N 24°33' W 125°54'0 0.5 22.6
2014-Jul-20 11:00N 24°34' W 125°54'0 0.2 22.7
2014-Jul-20 09:00N 24°34' W 125°55'2 0.5 22.7
2014-Jul-20 05:00N 24°36' W 125°55'1 0.6 22.8
2014-Jul-20 04:00N 24°37' W 125°55'0 0.1 23.0
2014-Jul-20 03:00N 24°37' W 125°55'1 0.6 23.2
2014-Jul-20 01:00N 24°38' W 125°55'1 0.4 23.2
2014-Jul-19 22:00N 24°38' W 125°56'1 0.4 23.1
2014-Jul-19 19:00N 24°39' W 125°57'1 0.2 22.8
2014-Jul-19 13:00N 24°40' W 125°58'0 0.2 22.7
2014-Jul-19 12:00N 24°40' W 125°58'0 0.3 22.7
2014-Jul-19 11:00N 24°40' W 125°57'0 0.0 22.7
2014-Jul-19 09:00N 24°40' W 125°57'3 0.6 22.8
2014-Jul-19 05:00N 24°43' W 125°57'0 0.0 23.1
2014-Jul-19 04:00N 24°43' W 125°57'0 0.0 23.2
2014-Jul-19 03:00N 24°43' W 125°57'0 0.0 23.1
2014-Jul-19 02:00N 24°43' W 125°57'1 0.6 23.3
2014-Jul-19 01:00N 24°43' W 125°57'1 0.3 23.4
2014-Jul-18 23:00N 24°44' W 125°57'0 0.2 23.5
2014-Jul-18 21:00N 24°44' W 125°58'1 0.3 23.8
2014-Jul-18 18:00N 24°45' W 125°57'2 2.4 22.9
2014-Jul-18 17:00N 24°46' W 125°59'0 0.0 22.5
2014-Jul-18 14:00N 24°46' W 125°59'1 0.8 22.3
2014-Jul-18 13:00N 24°47' W 125°60'0 0.1 22.3
2014-Jul-18 12:00N 24°47' W 125°60'0 0.0 22.3
2014-Jul-18 11:00N 24°47' W 125°60'1 0.4 22.3
2014-Jul-18 09:00N 24°46' W 125°60'1 0.8 22.4
2014-Jul-18 08:00N 24°47' W 126°00'1 0.3 22.4
2014-Jul-18 05:00N 24°46' W 126°00'1 1.0 22.6
2014-Jul-18 04:00N 24°46' W 125°59'1 0.3 22.7
2014-Jul-18 01:00N 24°47' W 125°59'1 0.4 23.4
2014-Jul-17 22:00N 24°48' W 125°60'0 0.0 23.5
2014-Jul-17 21:00N 24°48' W 125°60'1 0.2 23.1
2014-Jul-17 18:00N 24°49' W 125°60'2 1.7 22.5
2014-Jul-17 17:00N 24°51' W 126°00'1 0.2 22.4
2014-Jul-17 14:00N 24°51' W 126°01'0 0.0 22.3
2014-Jul-17 13:00N 24°51' W 126°01'1 0.9 22.3
2014-Jul-17 12:00N 24°52' W 126°02'2 1.5 22.4
2014-Jul-17 11:00N 24°51' W 126°03'1 0.2 22.4
2014-Jul-17 06:00N 24°50' W 126°04'1 1.0 22.4
2014-Jul-17 05:00N 24°49' W 126°04'0 0.0 22.4
2014-Jul-17 04:00N 24°49' W 126°04'0 0.5 22.5
2014-Jul-17 03:00N 24°50' W 126°04'1 0.2 22.6
2014-Jul-16 22:00N 24°51' W 126°03'0 0.5 23.1
2014-Jul-16 21:00N 24°51' W 126°03'2 0.5 22.8
2014-Jul-16 18:00N 24°52' W 126°03'0 0.0 22.1
2014-Jul-16 15:00N 24°52' W 126°03'1 0.7 22.1
2014-Jul-16 14:00N 24°53' W 126°03'1 1.1 22.1
2014-Jul-16 13:00N 24°54' W 126°04'1 1.1 22.1
2014-Jul-16 12:00N 24°54' W 126°06'0 0.0 22.1
2014-Jul-16 10:00N 24°54' W 126°06'2 0.5 22.1
2014-Jul-16 06:00N 24°53' W 126°07'1 0.7 22.3
2014-Jul-16 05:00N 24°52' W 126°08'0 0.0 22.3
2014-Jul-16 02:00N 24°52' W 126°08'1 0.3 22.5
2014-Jul-16 00:00N 24°53' W 126°08'0 0.2 22.8
2014-Jul-15 23:00N 24°53' W 126°08'1 0.3 22.7
2014-Jul-15 19:00N 24°52' W 126°09'0 0.2 22.1
2014-Jul-15 18:00N 24°52' W 126°09'0 0.0 22.0
2014-Jul-15 17:00N 24°52' W 126°09'0 0.0 22.0
2014-Jul-15 16:00N 24°52' W 126°09'0 0.2 22.0
2014-Jul-15 15:00N 24°52' W 126°09'0 0.4 22.0
2014-Jul-15 14:00N 24°52' W 126°09'0 0.0 22.0
2014-Jul-15 13:00N 24°52' W 126°09'0 0.4 22.0
2014-Jul-15 12:00N 24°52' W 126°09'1 0.3 22.0
2014-Jul-15 10:00N 24°53' W 126°10'0 0.0 22.1
2014-Jul-15 09:00N 24°53' W 126°10'1 0.2 22.1
2014-Jul-15 06:00N 24°52' W 126°10'0 0.4 22.1
2014-Jul-15 05:00N 24°52' W 126°10'1 0.3 22.1
2014-Jul-15 01:00N 24°52' W 126°11'1 0.8 22.2
2014-Jul-15 00:00N 24°53' W 126°10'1 1.1 22.1
2014-Jul-14 23:00N 24°53' W 126°11'0 0.0 22.1
2014-Jul-14 22:00N 24°53' W 126°11'1 0.6 22.1
2014-Jul-14 21:00N 24°52' W 126°12'   22.1
Track history (hours):
 
Tides and Currents Weather Stations Pressure Air Temp Water Temp Dewpoint Dewpoint Depression Visibility Wind Speed Wind Dir Waves Ship Positions

Drifting buoy 46563

Last reported at 2014-Jul-24 14:00 UTC. Time now 2014-Jul-24 17:45 UTC.
Position N 24°21' W 125°52'.

Water temperature 23.3 ° C

Date/timePositionNaut miles runAvg speedWind from/ knotsBaromVisibWave heightAir tempDewpointWater temp
2014-Jul-24 14:00N 24°21' W 125°52'0 0.0 23.3
2014-Jul-24 13:00N 24°21' W 125°52'1 1.0 23.3
2014-Jul-24 12:00N 24°20' W 125°51'1 0.3 23.3
2014-Jul-24 10:00N 24°20' W 125°52'0 0.0 23.3
2014-Jul-24 09:00N 24°20' W 125°52'2 0.6 23.4
2014-Jul-24 06:00N 24°20' W 125°50'1 0.7 23.4
2014-Jul-24 05:00N 24°20' W 125°50'0 0.0 23.4
2014-Jul-24 03:00N 24°20' W 125°50'1 0.6 23.4
2014-Jul-24 02:00N 24°20' W 125°49'1 0.3 23.5
2014-Jul-24 00:00N 24°21' W 125°49'1 0.8 23.6
2014-Jul-23 23:00N 24°21' W 125°49'1 0.3 23.5
2014-Jul-23 21:00N 24°21' W 125°48'0 0.1 23.5
2014-Jul-23 13:00N 24°21' W 125°48'0 0.0 23.3
2014-Jul-23 12:00N 24°21' W 125°48'1 0.5 23.4
2014-Jul-23 10:00N 24°22' W 125°47'1 0.2 23.4
2014-Jul-23 05:00N 24°23' W 125°48'0 0.0 23.4
2014-Jul-23 04:00N 24°23' W 125°48'2 0.3 23.5
2014-Jul-22 23:00N 24°23' W 125°50'1 1.0 24.0
2014-Jul-22 22:00N 24°23' W 125°49'0 0.0 24.0
2014-Jul-22 21:00N 24°23' W 125°49'0 0.0 23.9
2014-Jul-22 18:00N 24°23' W 125°49'0 0.2 23.5
2014-Jul-22 17:00N 24°23' W 125°48'1 0.2 23.4
2014-Jul-22 13:00N 24°23' W 125°48'1 0.7 23.4
2014-Jul-22 11:00N 24°24' W 125°47'0 0.0 23.4
2014-Jul-22 09:00N 24°24' W 125°47'2 0.4 23.4
2014-Jul-22 05:00N 24°26' W 125°48'2 1.5 23.7
2014-Jul-22 04:00N 24°26' W 125°50'0 0.0 23.8
2014-Jul-22 02:00N 24°26' W 125°50'1 0.8 23.8
2014-Jul-22 01:00N 24°26' W 125°51'0 0.1 23.7
2014-Jul-21 22:00N 24°26' W 125°51'0 0.1 24.5
2014-Jul-21 18:00N 24°26' W 125°51'0 0.0 23.4
2014-Jul-21 17:00N 24°26' W 125°51'1 0.2 23.1
2014-Jul-21 12:00N 24°27' W 125°51'1 0.4 22.9
2014-Jul-21 10:00N 24°28' W 125°51'0 0.0 23.0
2014-Jul-21 09:00N 24°28' W 125°51'3 0.5 23.1
2014-Jul-21 04:00N 24°30' W 125°52'0 0.0 23.5
2014-Jul-21 03:00N 24°30' W 125°52'1 1.1 23.6
2014-Jul-21 02:00N 24°31' W 125°53'1 0.4 23.6
2014-Jul-21 00:00N 24°31' W 125°53'1 0.4 23.8
2014-Jul-20 22:00N 24°32' W 125°54'0 0.0 23.6
2014-Jul-20 20:00N 24°32' W 125°54'0 0.2 23.4
2014-Jul-20 19:00N 24°32' W 125°54'0 0.0 23.2
2014-Jul-20 18:00N 24°32' W 125°54'0 0.2 22.9
2014-Jul-20 17:00N 24°32' W 125°54'1 0.2 22.7
2014-Jul-20 14:00N 24°33' W 125°54'0 0.2 22.6
2014-Jul-20 13:00N 24°33' W 125°54'0 0.2 22.6
2014-Jul-20 12:00N 24°33' W 125°54'0 0.5 22.6
2014-Jul-20 11:00N 24°34' W 125°54'0 0.2 22.7
2014-Jul-20 09:00N 24°34' W 125°55'2 0.5 22.7
2014-Jul-20 05:00N 24°36' W 125°55'1 0.6 22.8
2014-Jul-20 04:00N 24°37' W 125°55'0 0.1 23.0
2014-Jul-20 03:00N 24°37' W 125°55'1 0.6 23.2
2014-Jul-20 01:00N 24°38' W 125°55'1 0.4 23.2
2014-Jul-19 22:00N 24°38' W 125°56'1 0.4 23.1
2014-Jul-19 19:00N 24°39' W 125°57'1 0.2 22.8
2014-Jul-19 13:00N 24°40' W 125°58'0 0.2 22.7
2014-Jul-19 12:00N 24°40' W 125°58'0 0.3 22.7
2014-Jul-19 11:00N 24°40' W 125°57'0 0.0 22.7
2014-Jul-19 09:00N 24°40' W 125°57'3 0.6 22.8
2014-Jul-19 05:00N 24°43' W 125°57'0 0.0 23.1
2014-Jul-19 04:00N 24°43' W 125°57'0 0.0 23.2
2014-Jul-19 03:00N 24°43' W 125°57'0 0.0 23.1
2014-Jul-19 02:00N 24°43' W 125°57'1 0.6 23.3
2014-Jul-19 01:00N 24°43' W 125°57'1 0.3 23.4
2014-Jul-18 23:00N 24°44' W 125°57'0 0.2 23.5
2014-Jul-18 21:00N 24°44' W 125°58'1 0.3 23.8
2014-Jul-18 18:00N 24°45' W 125°57'2 2.4 22.9
2014-Jul-18 17:00N 24°46' W 125°59'0 0.0 22.5
2014-Jul-18 14:00N 24°46' W 125°59'1 0.8 22.3
2014-Jul-18 13:00N 24°47' W 125°60'0 0.1 22.3
2014-Jul-18 12:00N 24°47' W 125°60'0 0.0 22.3
2014-Jul-18 11:00N 24°47' W 125°60'1 0.4 22.3
2014-Jul-18 09:00N 24°46' W 125°60'1 0.8 22.4
2014-Jul-18 08:00N 24°47' W 126°00'1 0.3 22.4
2014-Jul-18 05:00N 24°46' W 126°00'1 1.0 22.6
2014-Jul-18 04:00N 24°46' W 125°59'1 0.3 22.7
2014-Jul-18 01:00N 24°47' W 125°59'1 0.4 23.4
2014-Jul-17 22:00N 24°48' W 125°60'0 0.0 23.5
2014-Jul-17 21:00N 24°48' W 125°60'1 0.2 23.1
2014-Jul-17 18:00N 24°49' W 125°60'2 1.7 22.5
2014-Jul-17 17:00N 24°51' W 126°00'1 0.2 22.4
2014-Jul-17 14:00N 24°51' W 126°01'0 0.0 22.3
2014-Jul-17 13:00N 24°51' W 126°01'1 0.9 22.3
2014-Jul-17 12:00N 24°52' W 126°02'2 1.5 22.4
2014-Jul-17 11:00N 24°51' W 126°03'1 0.2 22.4
2014-Jul-17 06:00N 24°50' W 126°04'1 1.0 22.4
2014-Jul-17 05:00N 24°49' W 126°04'0 0.0 22.4
2014-Jul-17 04:00N 24°49' W 126°04'0 0.5 22.5
2014-Jul-17 03:00N 24°50' W 126°04'1 0.2 22.6
2014-Jul-16 22:00N 24°51' W 126°03'0 0.5 23.1
2014-Jul-16 21:00N 24°51' W 126°03'2 0.5 22.8
2014-Jul-16 18:00N 24°52' W 126°03'0 0.0 22.1
2014-Jul-16 15:00N 24°52' W 126°03'1 0.7 22.1
2014-Jul-16 14:00N 24°53' W 126°03'1 1.1 22.1
2014-Jul-16 13:00N 24°54' W 126°04'1 1.1 22.1
2014-Jul-16 12:00N 24°54' W 126°06'0 0.0 22.1
2014-Jul-16 10:00N 24°54' W 126°06'2 0.5 22.1
2014-Jul-16 06:00N 24°53' W 126°07'1 0.7 22.3
2014-Jul-16 05:00N 24°52' W 126°08'0 0.0 22.3
2014-Jul-16 02:00N 24°52' W 126°08'1 0.3 22.5
2014-Jul-16 00:00N 24°53' W 126°08'0 0.2 22.8
2014-Jul-15 23:00N 24°53' W 126°08'1 0.3 22.7
2014-Jul-15 19:00N 24°52' W 126°09'0 0.2 22.1
2014-Jul-15 18:00N 24°52' W 126°09'0 0.0 22.0
2014-Jul-15 17:00N 24°52' W 126°09'0 0.0 22.0
2014-Jul-15 16:00N 24°52' W 126°09'0 0.2 22.0
2014-Jul-15 15:00N 24°52' W 126°09'0 0.4 22.0
2014-Jul-15 14:00N 24°52' W 126°09'0 0.0 22.0
2014-Jul-15 13:00N 24°52' W 126°09'0 0.4 22.0
2014-Jul-15 12:00N 24°52' W 126°09'1 0.3 22.0
2014-Jul-15 10:00N 24°53' W 126°10'0 0.0 22.1
2014-Jul-15 09:00N 24°53' W 126°10'1 0.2 22.1
2014-Jul-15 06:00N 24°52' W 126°10'0 0.4 22.1
2014-Jul-15 05:00N 24°52' W 126°10'1 0.3 22.1
2014-Jul-15 01:00N 24°52' W 126°11'1 0.8 22.2
2014-Jul-15 00:00N 24°53' W 126°10'1 1.1 22.1
2014-Jul-14 23:00N 24°53' W 126°11'0 0.0 22.1
2014-Jul-14 22:00N 24°53' W 126°11'1 0.6 22.1
2014-Jul-14 21:00N 24°52' W 126°12'   22.1

Dump ship's entire track history